createdAt,value
2023-04-08T00:00:55.761Z,8.80
2023-04-08T00:03:23.051Z,8.25
2023-04-08T00:05:50.453Z,8.30
2023-04-08T00:08:17.654Z,8.05
2023-04-08T00:10:45.005Z,7.85
2023-04-08T00:13:12.212Z,7.75
2023-04-08T00:15:39.443Z,7.78
2023-04-08T00:18:07.875Z,7.00
2023-04-08T00:20:35.417Z,6.70
2023-04-08T00:23:02.623Z,7.47
2023-04-08T00:25:29.854Z,7.57
2023-04-08T00:27:57.068Z,6.80
2023-04-08T00:30:24.235Z,7.15
2023-04-08T00:32:51.526Z,7.22
2023-04-08T00:35:18.788Z,7.32
2023-04-08T00:37:46.042Z,6.85
2023-04-08T00:40:13.211Z,7.07
2023-04-08T00:42:40.441Z,6.40
2023-04-08T00:45:07.995Z,7.30
2023-04-08T00:47:36.562Z,6.93
2023-04-08T00:50:04.512Z,7.47
2023-04-08T00:52:31.692Z,7.03
2023-04-08T00:54:58.901Z,7.22
2023-04-08T00:57:26.218Z,6.20
2023-04-08T00:59:53.396Z,6.22
2023-04-08T01:02:39.370Z,6.20
2023-04-08T01:05:08.228Z,6.30
2023-04-08T01:07:37.437Z,6.38
2023-04-08T01:10:16.589Z,6.32
2023-04-08T01:12:57.152Z,5.82
2023-04-08T01:15:25.408Z,6.18
2023-04-08T01:17:54.673Z,6.20
2023-04-08T01:20:22.116Z,5.63
2023-04-08T01:22:54.840Z,6.03
2023-04-08T01:25:24.789Z,5.95
2023-04-08T01:27:56.391Z,5.82
2023-04-08T01:30:24.560Z,5.60
2023-04-08T01:32:53.514Z,5.88
2023-04-08T01:35:21.405Z,6.03
2023-04-08T01:37:49.970Z,6.07
2023-04-08T01:40:17.883Z,6.28
2023-04-08T01:42:45.676Z,5.53
2023-04-08T01:45:13.026Z,5.30
2023-04-08T01:47:40.440Z,5.72
2023-04-08T01:50:08.582Z,5.80
2023-04-08T01:52:36.251Z,7.55
2023-04-08T01:55:03.510Z,5.80
2023-04-08T01:57:32.674Z,5.95
2023-04-08T02:00:05.765Z,6.15
2023-04-08T02:02:33.756Z,6.35
2023-04-08T02:05:01.084Z,5.88
2023-04-08T02:07:28.270Z,6.68
2023-04-08T02:09:56.715Z,6.63
2023-04-08T02:12:23.910Z,5.90
2023-04-08T02:14:51.758Z,6.82
2023-04-08T02:17:22.310Z,6.55
2023-04-08T02:19:53.298Z,6.20
2023-04-08T02:22:24.549Z,6.60
2023-04-08T02:24:52.112Z,7.53
2023-04-08T02:27:19.998Z,6.70
2023-04-08T02:29:48.029Z,6.07
2023-04-08T02:32:16.147Z,6.65
2023-04-08T02:34:44.330Z,6.47
2023-04-08T02:37:11.622Z,6.45
2023-04-08T02:39:38.826Z,7.10
2023-04-08T02:42:06.152Z,6.22
2023-04-08T02:44:33.374Z,6.57
2023-04-08T02:47:00.569Z,6.80
2023-04-08T02:49:27.704Z,6.50
2023-04-08T02:51:54.862Z,6.25
2023-04-08T02:54:22.018Z,6.75
2023-04-08T02:56:49.197Z,6.47
2023-04-08T02:59:16.415Z,7.28
2023-04-08T03:01:43.808Z,7.10
2023-04-08T03:04:11.255Z,7.28
2023-04-08T03:06:38.384Z,6.75
2023-04-08T03:09:08.614Z,7.50
2023-04-08T03:11:35.975Z,7.20
2023-04-08T03:14:03.130Z,7.10
2023-04-08T03:16:30.518Z,7.57
2023-04-08T03:18:58.063Z,7.47
2023-04-08T03:21:25.513Z,7.25
2023-04-08T03:23:52.672Z,7.50
2023-04-08T03:26:19.983Z,7.13
2023-04-08T03:28:47.462Z,7.07
2023-04-08T03:31:14.951Z,6.78
2023-04-08T03:33:42.209Z,7.45
2023-04-08T03:36:09.961Z,7.82
2023-04-08T03:38:37.296Z,7.65
2023-04-08T03:41:04.482Z,7.78
2023-04-08T03:43:31.643Z,8.32
2023-04-08T03:45:59.148Z,7.40
2023-04-08T03:48:26.398Z,7.95
2023-04-08T03:50:53.545Z,7.78
2023-04-08T03:53:20.729Z,7.97
2023-04-08T03:55:50.900Z,8.02
2023-04-08T03:58:18.137Z,7.90
2023-04-08T04:00:45.289Z,7.72
2023-04-08T04:03:13.314Z,8.02
2023-04-08T04:05:40.923Z,8.48
2023-04-08T04:08:09.431Z,8.20
2023-04-08T04:10:36.708Z,9.13
2023-04-08T04:13:03.908Z,8.38
2023-04-08T04:15:31.194Z,8.48
2023-04-08T04:17:58.413Z,8.90
2023-04-08T04:20:26.129Z,8.68
2023-04-08T04:22:53.308Z,8.88
2023-04-08T04:25:20.565Z,8.93
2023-04-08T04:27:47.734Z,9.23
2023-04-08T04:30:19.463Z,9.65
2023-04-08T04:32:46.723Z,9.02
2023-04-08T04:35:13.978Z,9.68
2023-04-08T04:37:41.695Z,9.50
2023-04-08T04:40:09.295Z,8.93
2023-04-08T04:42:36.536Z,9.63
2023-04-08T04:45:04.091Z,9.18
2023-04-08T04:47:32.634Z,9.60
2023-04-08T04:49:59.938Z,8.30
2023-04-08T04:52:27.110Z,10.20
2023-04-08T04:54:54.362Z,9.77
2023-04-08T04:57:21.529Z,9.63
2023-04-08T04:59:48.694Z,9.98
2023-04-08T05:02:16.030Z,9.93
2023-04-08T05:04:43.281Z,9.85
2023-04-08T05:07:10.491Z,10.50
2023-04-08T05:09:37.640Z,11.13
2023-04-08T05:12:04.892Z,10.55
2023-04-08T05:14:32.083Z,11.40
2023-04-08T05:16:59.240Z,10.55
2023-04-08T05:19:26.372Z,11.25
2023-04-08T05:21:53.584Z,10.75
2023-04-08T05:24:20.756Z,11.45
2023-04-08T05:26:52.202Z,10.93
2023-04-08T05:29:21.764Z,11.85
2023-04-08T05:31:49.296Z,10.93
2023-04-08T05:34:22.641Z,11.60
2023-04-08T05:36:53.431Z,12.38
2023-04-08T05:39:20.842Z,11.68
2023-04-08T05:41:48.045Z,11.52
2023-04-08T05:44:15.551Z,11.32
2023-04-08T05:46:42.830Z,12.30
2023-04-08T05:49:10.132Z,11.60
2023-04-08T05:51:37.261Z,12.50
2023-04-08T05:54:04.495Z,13.00
2023-04-08T05:56:32.302Z,11.55
2023-04-08T05:58:59.466Z,11.80
2023-04-08T06:01:26.801Z,11.63
2023-04-08T06:03:56.220Z,11.93
2023-04-08T06:06:23.944Z,11.35
2023-04-08T06:08:52.018Z,12.38
2023-04-08T06:11:19.569Z,12.30
2023-04-08T06:13:46.733Z,13.10
2023-04-08T06:16:14.329Z,12.85
2023-04-08T06:18:41.718Z,11.98
2023-04-08T06:21:08.901Z,12.35
2023-04-08T06:23:36.433Z,11.52
2023-04-08T06:26:04.737Z,12.75
2023-04-08T06:28:32.003Z,12.52
2023-04-08T06:30:59.669Z,12.15
2023-04-08T06:33:26.821Z,12.90
2023-04-08T06:36:02.739Z,11.82
2023-04-08T06:38:30.184Z,12.63
2023-04-08T06:40:57.426Z,11.90
2023-04-08T06:43:24.621Z,12.18
2023-04-08T06:45:52.165Z,11.82
2023-04-08T06:48:19.756Z,12.05
2023-04-08T06:50:46.967Z,12.00
2023-04-08T06:53:14.188Z,12.65
2023-04-08T06:55:41.408Z,12.82
2023-04-08T06:58:08.523Z,12.20
2023-04-08T07:00:35.673Z,11.65
2023-04-08T07:03:02.850Z,12.52
2023-04-08T07:05:30.108Z,12.15
2023-04-08T07:07:57.232Z,12.52
2023-04-08T07:10:24.383Z,12.00
2023-04-08T07:12:52.612Z,13.00
2023-04-08T07:15:19.779Z,11.88
2023-04-08T07:17:47.625Z,11.60
2023-04-08T07:20:15.016Z,12.27
2023-04-08T07:22:42.167Z,11.68
2023-04-08T07:25:09.713Z,11.85
2023-04-08T07:27:37.153Z,13.05
2023-04-08T07:30:04.442Z,13.00
2023-04-08T07:32:32.089Z,12.43
2023-04-08T07:35:00.376Z,12.18
2023-04-08T07:37:27.950Z,12.77
2023-04-08T07:39:55.257Z,12.02
2023-04-08T07:42:22.479Z,11.90
2023-04-08T07:44:49.665Z,11.38
2023-04-08T07:47:16.831Z,11.35
2023-04-08T07:49:44.816Z,10.95
2023-04-08T07:52:11.946Z,11.15
2023-04-08T07:54:39.101Z,10.68
2023-04-08T07:57:06.322Z,10.48
2023-04-08T07:59:33.639Z,10.43
2023-04-08T08:02:01.030Z,9.15
2023-04-08T08:04:28.424Z,9.38
2023-04-08T08:06:55.942Z,10.60
2023-04-08T08:09:23.125Z,9.85
2023-04-08T08:11:50.340Z,10.55
2023-04-08T08:14:17.557Z,9.70
2023-04-08T08:16:44.782Z,10.55
2023-04-08T08:19:13.944Z,10.02
2023-04-08T08:21:41.237Z,10.02
2023-04-08T08:24:08.452Z,9.98
2023-04-08T08:26:39.446Z,9.90
2023-04-08T08:29:08.917Z,10.57
2023-04-08T08:31:36.279Z,9.75
2023-04-08T08:34:04.079Z,9.98
2023-04-08T08:36:32.783Z,11.70
2023-04-08T08:39:01.326Z,11.20
2023-04-08T08:41:28.498Z,10.70
2023-04-08T08:43:55.643Z,11.50
2023-04-08T08:46:22.876Z,10.98
2023-04-08T08:48:50.080Z,11.40
2023-04-08T08:51:17.281Z,10.60
2023-04-08T08:53:45.677Z,11.52
2023-04-08T08:56:18.401Z,11.27
2023-04-08T08:58:47.687Z,10.25
2023-04-08T09:01:33.998Z,11.73
2023-04-08T09:04:08.587Z,10.25
2023-04-08T09:06:36.502Z,11.15
2023-04-08T09:09:06.140Z,10.88
2023-04-08T09:11:33.354Z,11.55
2023-04-08T09:14:00.552Z,11.68
2023-04-08T09:16:28.201Z,11.27
2023-04-08T09:18:55.782Z,11.27
2023-04-08T09:21:24.938Z,10.63
2023-04-08T09:23:53.186Z,10.32
2023-04-08T09:26:22.268Z,10.35
2023-04-08T09:28:58.827Z,9.98
2023-04-08T09:31:33.042Z,9.95
2023-04-08T09:34:02.368Z,9.95
2023-04-08T09:36:29.569Z,9.65
2023-04-08T09:38:56.798Z,10.05
2023-04-08T09:41:24.344Z,9.45
2023-04-08T09:43:52.796Z,10.38
2023-04-08T09:46:22.649Z,9.38
2023-04-08T09:48:51.395Z,9.45
2023-04-08T09:51:20.296Z,9.43
2023-04-08T09:53:48.755Z,8.93
2023-04-08T09:56:18.014Z,9.88
2023-04-08T09:59:00.519Z,9.32
2023-04-08T10:01:30.530Z,9.35
2023-04-08T10:03:58.175Z,9.40
2023-04-08T10:06:29.699Z,10.40
2023-04-08T10:08:57.020Z,9.95
2023-04-08T10:11:24.497Z,9.82
2023-04-08T10:13:52.370Z,10.15
2023-04-08T10:16:29.972Z,10.43
2023-04-08T10:18:57.749Z,10.65
2023-04-08T10:21:37.632Z,11.10
2023-04-08T10:24:08.760Z,10.48
2023-04-08T10:26:40.072Z,10.63
2023-04-08T10:29:33.434Z,10.55
2023-04-08T10:32:01.547Z,10.77
2023-04-08T10:34:28.797Z,10.88
2023-04-08T10:36:56.966Z,10.88
2023-04-08T10:39:25.767Z,10.68
2023-04-08T10:41:52.977Z,11.48
2023-04-08T10:44:25.064Z,12.38
2023-04-08T10:46:52.764Z,11.77
2023-04-08T10:49:20.328Z,11.05
2023-04-08T10:51:47.890Z,11.38
2023-04-08T10:54:18.988Z,12.02
2023-04-08T10:56:50.170Z,11.02
2023-04-08T10:59:20.115Z,11.40
2023-04-08T11:01:47.421Z,11.73
2023-04-08T11:04:15.808Z,11.15
2023-04-08T11:06:44.185Z,12.25
2023-04-08T11:09:11.919Z,12.02
2023-04-08T11:11:39.126Z,11.85
2023-04-08T11:14:07.096Z,11.77
2023-04-08T11:16:35.104Z,11.93
2023-04-08T11:19:06.198Z,11.82
2023-04-08T11:21:36.344Z,11.73
2023-04-08T11:24:07.704Z,12.18
2023-04-08T11:26:37.762Z,12.07
2023-04-08T11:29:06.644Z,11.73
2023-04-08T11:31:34.376Z,12.25
2023-04-08T11:34:01.786Z,11.57
2023-04-08T11:36:30.290Z,12.25
2023-04-08T11:38:57.732Z,11.70
2023-04-08T11:41:24.923Z,12.30
2023-04-08T11:43:55.791Z,12.35
2023-04-08T11:46:23.641Z,12.70
2023-04-08T11:49:04.819Z,13.40
2023-04-08T11:51:32.405Z,12.68
2023-04-08T11:53:59.600Z,11.93
2023-04-08T11:56:27.294Z,12.93
2023-04-08T11:58:54.513Z,12.05
2023-04-08T12:01:21.832Z,12.32
2023-04-08T12:04:03.117Z,12.82
2023-04-08T12:06:31.948Z,12.27
2023-04-08T12:08:59.789Z,12.55
2023-04-08T12:11:26.999Z,10.75
2023-04-08T12:13:54.369Z,11.13
2023-04-08T12:16:21.728Z,11.27
2023-04-08T12:18:49.414Z,10.15
2023-04-08T12:21:16.688Z,9.60
2023-04-08T12:23:43.871Z,11.43
2023-04-08T12:26:11.749Z,10.68
2023-04-08T12:28:38.957Z,10.27
2023-04-08T12:31:06.248Z,9.60
2023-04-08T12:33:33.404Z,10.32
2023-04-08T12:36:00.805Z,9.30
2023-04-08T12:38:28.078Z,9.27
2023-04-08T12:40:55.913Z,9.73
2023-04-08T12:43:24.456Z,9.98
2023-04-08T12:45:52.168Z,10.23
2023-04-08T12:48:19.541Z,9.73
2023-04-08T12:50:46.750Z,10.30
2023-04-08T12:53:13.936Z,10.52
2023-04-08T12:55:42.638Z,11.23
2023-04-08T12:58:11.059Z,10.75
2023-04-08T13:00:38.288Z,10.10
2023-04-08T13:03:06.409Z,9.77
2023-04-08T13:05:43.189Z,10.82
2023-04-08T13:08:14.369Z,10.13
2023-04-08T13:10:42.923Z,11.02
2023-04-08T13:13:10.169Z,10.23
2023-04-08T13:15:37.978Z,11.20
2023-04-08T13:18:06.170Z,10.35
2023-04-08T13:20:33.588Z,9.65
2023-04-08T13:23:01.157Z,9.63
2023-04-08T13:25:28.529Z,9.82
2023-04-08T13:27:56.008Z,10.43
2023-04-08T13:30:23.219Z,9.38
2023-04-08T13:32:50.500Z,8.60
2023-04-08T13:35:17.663Z,8.40
2023-04-08T13:37:44.871Z,9.20
2023-04-08T13:40:12.195Z,8.98
2023-04-08T13:42:39.498Z,8.60
2023-04-08T13:45:07.101Z,9.25
2023-04-08T13:47:35.883Z,8.80
2023-04-08T13:50:04.980Z,8.23
2023-04-08T13:52:32.117Z,8.18
2023-04-08T13:54:59.230Z,8.80
2023-04-08T13:57:26.410Z,8.32
2023-04-08T13:59:53.598Z,7.93
2023-04-08T14:02:21.580Z,8.77
2023-04-08T14:04:48.880Z,8.57
2023-04-08T14:07:16.162Z,8.05
2023-04-08T14:09:43.328Z,7.78
2023-04-08T14:12:10.892Z,8.13
2023-04-08T14:14:38.037Z,9.27
2023-04-08T14:17:05.244Z,9.95
2023-04-08T14:19:32.548Z,9.35
2023-04-08T14:21:59.733Z,9.30
2023-04-08T14:24:27.133Z,8.75
2023-04-08T14:26:54.338Z,9.13
2023-04-08T14:29:21.494Z,9.23
2023-04-08T14:31:48.679Z,8.73
2023-04-08T14:34:16.150Z,8.77
2023-04-08T14:36:43.522Z,9.52
2023-04-08T14:39:12.157Z,9.18
2023-04-08T14:41:39.601Z,8.70
2023-04-08T14:44:06.778Z,9.05
2023-04-08T14:46:34.314Z,8.95
2023-04-08T14:49:01.572Z,9.18
2023-04-08T14:51:28.694Z,9.20
2023-04-08T14:53:55.999Z,8.52
2023-04-08T14:56:23.132Z,8.90
2023-04-08T14:58:50.548Z,9.13
2023-04-08T15:01:17.948Z,8.88
2023-04-08T15:03:45.165Z,9.02
2023-04-08T15:06:16.927Z,8.98
2023-04-08T15:08:44.205Z,8.40
2023-04-08T15:11:11.533Z,9.68
2023-04-08T15:13:38.699Z,9.55
2023-04-08T15:16:06.046Z,8.98
2023-04-08T15:18:33.308Z,9.73
2023-04-08T15:21:00.771Z,9.75
2023-04-08T15:23:27.900Z,10.00
2023-04-08T15:25:57.182Z,10.13
2023-04-08T15:28:24.535Z,9.82
2023-04-08T15:30:51.807Z,10.63
2023-04-08T15:33:20.001Z,9.98
2023-04-08T15:35:48.462Z,10.70
2023-04-08T15:38:16.252Z,10.55
2023-04-08T15:40:44.210Z,10.95
2023-04-08T15:43:12.445Z,9.93
2023-04-08T15:45:44.082Z,10.45
2023-04-08T15:48:14.332Z,10.43
2023-04-08T15:50:42.147Z,10.90
2023-04-08T15:53:09.442Z,10.52
2023-04-08T15:55:40.105Z,10.48
2023-04-08T15:58:07.745Z,11.60
2023-04-08T16:00:35.037Z,10.80
2023-04-08T16:03:02.473Z,11.32
2023-04-08T16:05:31.134Z,11.07
2023-04-08T16:07:58.329Z,12.25
2023-04-08T16:10:26.117Z,12.25
2023-04-08T16:12:53.247Z,11.95
2023-04-08T16:15:20.719Z,11.30
2023-04-08T16:17:54.135Z,11.40
2023-04-08T16:20:21.680Z,11.88
2023-04-08T16:22:50.115Z,11.88
2023-04-08T16:25:17.363Z,12.77
2023-04-08T16:27:44.626Z,11.63
2023-04-08T16:30:12.000Z,12.38
2023-04-08T16:32:39.596Z,12.20
2023-04-08T16:35:07.095Z,12.20
2023-04-08T16:37:34.811Z,11.23
2023-04-08T16:40:03.150Z,11.77
2023-04-08T16:42:31.218Z,11.80
2023-04-08T16:44:59.435Z,12.45
2023-04-08T16:47:27.510Z,11.35
2023-04-08T16:49:55.012Z,11.30
2023-04-08T16:52:22.173Z,12.18
2023-04-08T16:54:49.357Z,12.00
2023-04-08T16:57:16.754Z,12.02
2023-04-08T16:59:43.916Z,12.20
2023-04-08T17:02:11.213Z,12.25
2023-04-08T17:04:38.792Z,12.00
2023-04-08T17:07:06.415Z,11.65
2023-04-08T17:09:33.620Z,11.85
2023-04-08T17:12:01.270Z,11.05
2023-04-08T17:14:28.545Z,11.75
2023-04-08T17:16:56.054Z,11.18
2023-04-08T17:19:23.221Z,11.10
2023-04-08T17:21:50.741Z,12.13
2023-04-08T17:24:17.931Z,11.93
2023-04-08T17:26:46.180Z,11.68
2023-04-08T17:29:13.366Z,11.45
2023-04-08T17:31:41.401Z,11.07
2023-04-08T17:34:08.567Z,11.70
2023-04-08T17:36:35.817Z,11.10
2023-04-08T17:39:02.933Z,11.63
2023-04-08T17:41:39.793Z,10.68
2023-04-08T17:44:07.969Z,11.10
2023-04-08T17:46:35.799Z,10.23
2023-04-08T17:49:02.943Z,10.45
2023-04-08T17:51:30.985Z,10.63
2023-04-08T17:53:58.187Z,9.90
2023-04-08T17:56:27.178Z,10.02
2023-04-08T17:58:54.404Z,10.93
2023-04-08T18:01:22.622Z,11.50
2023-04-08T18:03:51.793Z,10.00
2023-04-08T18:06:19.279Z,9.75
2023-04-08T18:08:46.495Z,10.13
2023-04-08T18:11:13.651Z,10.07
2023-04-08T18:13:40.834Z,10.18
2023-04-08T18:16:16.505Z,10.05
2023-04-08T18:18:43.753Z,10.13
2023-04-08T18:21:10.916Z,10.93
2023-04-08T18:23:38.105Z,9.80
2023-04-08T18:26:05.283Z,11.07
2023-04-08T18:28:32.491Z,10.32
2023-04-08T18:30:59.793Z,9.75
2023-04-08T18:33:27.241Z,10.45
2023-04-08T18:35:54.661Z,10.82
2023-04-08T18:38:22.014Z,10.55
2023-04-08T18:40:49.282Z,11.25
2023-04-08T18:43:16.397Z,10.02
2023-04-08T18:45:43.546Z,11.18
2023-04-08T18:48:12.316Z,10.32
2023-04-08T18:50:40.273Z,9.55
2023-04-08T18:53:08.065Z,10.27
2023-04-08T18:55:38.635Z,9.68
2023-04-08T18:58:05.987Z,10.63
2023-04-08T19:00:33.214Z,10.82
2023-04-08T19:03:00.502Z,12.40
2023-04-08T19:05:27.697Z,11.52
2023-04-08T19:07:54.999Z,10.85
2023-04-08T19:10:24.446Z,10.95
2023-04-08T19:12:51.555Z,10.82
2023-04-08T19:15:18.741Z,10.30
2023-04-08T19:17:46.501Z,10.70
2023-04-08T19:20:13.675Z,11.27
2023-04-08T19:22:40.946Z,9.82
2023-04-08T19:25:08.219Z,10.50
2023-04-08T19:27:35.889Z,11.23
2023-04-08T19:30:03.008Z,10.48
2023-04-08T19:32:30.274Z,11.05
2023-04-08T19:34:57.535Z,11.05
2023-04-08T19:37:25.720Z,10.50
2023-04-08T19:39:52.867Z,11.75
2023-04-08T19:42:20.076Z,11.02
2023-04-08T19:44:49.983Z,11.38
2023-04-08T19:47:17.692Z,11.13
2023-04-08T19:49:44.940Z,11.88
2023-04-08T19:52:12.143Z,12.15
2023-04-08T19:54:41.170Z,11.68
2023-04-08T19:57:09.262Z,12.50
2023-04-08T19:59:36.827Z,10.30
2023-04-08T20:02:04.157Z,11.93
2023-04-08T20:04:31.659Z,11.32
2023-04-08T20:07:02.355Z,11.48
2023-04-08T20:09:29.571Z,11.35
2023-04-08T20:12:03.642Z,11.75
2023-04-08T20:14:31.329Z,10.80
2023-04-08T20:16:59.114Z,11.65
2023-04-08T20:19:27.071Z,10.82
2023-04-08T20:21:54.432Z,11.52
2023-04-08T20:24:21.747Z,10.70
2023-04-08T20:26:48.918Z,10.27
2023-04-08T20:29:16.514Z,11.90
2023-04-08T20:31:45.288Z,11.75
2023-04-08T20:34:12.902Z,11.75
2023-04-08T20:36:40.145Z,12.30
2023-04-08T20:39:10.727Z,12.05
2023-04-08T20:41:38.126Z,12.10
2023-04-08T20:44:06.877Z,11.30
2023-04-08T20:46:35.129Z,10.50
2023-04-08T20:49:03.667Z,10.90
2023-04-08T20:51:31.434Z,10.52
2023-04-08T20:53:58.596Z,10.73
2023-04-08T20:56:26.507Z,9.88
2023-04-08T20:58:53.978Z,10.18
2023-04-08T21:01:22.143Z,10.50
2023-04-08T21:03:49.482Z,9.88
2023-04-08T21:06:17.472Z,9.90
2023-04-08T21:08:44.977Z,9.85
2023-04-08T21:11:12.324Z,8.48
2023-04-08T21:13:39.536Z,8.60
2023-04-08T21:16:07.499Z,10.60
2023-04-08T21:18:35.012Z,9.10
2023-04-08T21:21:02.161Z,8.50
2023-04-08T21:23:29.474Z,8.32
2023-04-08T21:25:56.582Z,7.88
2023-04-08T21:28:23.728Z,7.82
2023-04-08T21:30:50.886Z,7.75
2023-04-08T21:33:18.294Z,7.82
2023-04-08T21:35:45.478Z,7.28
2023-04-08T21:38:12.886Z,6.65
2023-04-08T21:40:41.195Z,6.53
2023-04-08T21:43:08.325Z,6.55
2023-04-08T21:45:35.585Z,6.03
2023-04-08T21:48:02.845Z,6.53
2023-04-08T21:50:30.064Z,6.32
2023-04-08T21:52:57.167Z,6.13
2023-04-08T21:55:24.417Z,5.80
2023-04-08T21:57:51.610Z,6.28
2023-04-08T22:00:18.817Z,6.78
2023-04-08T22:02:46.077Z,5.95
2023-04-08T22:05:13.450Z,6.40
2023-04-08T22:07:40.777Z,6.50
2023-04-08T22:10:08.276Z,5.68
2023-04-08T22:12:35.589Z,6.65
2023-04-08T22:15:03.163Z,6.10
2023-04-08T22:17:30.326Z,5.80
2023-04-08T22:19:57.483Z,5.80
2023-04-08T22:22:24.704Z,6.05
2023-04-08T22:24:51.824Z,6.10
2023-04-08T22:27:19.020Z,5.80
2023-04-08T22:29:46.516Z,6.30
2023-04-08T22:32:13.730Z,5.30
2023-04-08T22:34:41.144Z,5.90
2023-04-08T22:37:08.309Z,6.57
2023-04-08T22:39:35.481Z,6.20
2023-04-08T22:42:02.670Z,6.20
2023-04-08T22:44:29.817Z,5.82
2023-04-08T22:46:56.957Z,6.10
2023-04-08T22:49:24.069Z,6.30
2023-04-08T22:51:51.250Z,6.85
2023-04-08T22:54:18.400Z,5.30
2023-04-08T22:56:45.764Z,5.95
2023-04-08T22:59:12.886Z,6.13
2023-04-08T23:01:41.642Z,6.00
2023-04-08T23:04:08.930Z,6.00
2023-04-08T23:06:36.256Z,5.80
2023-04-08T23:09:03.400Z,6.10
2023-04-08T23:11:30.755Z,6.38
2023-04-08T23:13:57.868Z,6.07
2023-04-08T23:16:25.250Z,6.35
2023-04-08T23:18:52.804Z,6.72
2023-04-08T23:21:20.967Z,6.90
2023-04-08T23:23:48.261Z,6.40
2023-04-08T23:26:18.927Z,7.32
2023-04-08T23:28:46.389Z,6.40
2023-04-08T23:31:13.917Z,6.50
2023-04-08T23:33:41.212Z,6.68
2023-04-08T23:36:12.481Z,6.57
2023-04-08T23:38:39.818Z,6.75
2023-04-08T23:41:07.549Z,6.20
2023-04-08T23:43:35.270Z,6.53
2023-04-08T23:46:02.476Z,6.88
2023-04-08T23:48:29.676Z,7.60
2023-04-08T23:50:56.809Z,6.15
2023-04-08T23:53:24.113Z,7.00
2023-04-08T23:55:51.226Z,6.85
2023-04-08T23:58:18.363Z,6.82
